sensor_id;sensor_type;location;lat;lon;timestamp;P1;durP1;ratioP1;P2;durP2;ratioP2
41837;SDS011;27511;52.042;5.178;2024-02-21T00:02:07;8.23;;;2.60;;
41837;SDS011;27511;52.042;5.178;2024-02-21T00:04:32;9.32;;;3.15;;
41837;SDS011;27511;52.042;5.178;2024-02-21T00:06:58;9.90;;;4.03;;
41837;SDS011;27511;52.042;5.178;2024-02-21T00:09:24;4.60;;;2.80;;
41837;SDS011;27511;52.042;5.178;2024-02-21T00:11:49;7.07;;;2.92;;
41837;SDS011;27511;52.042;5.178;2024-02-21T00:14:15;7.65;;;3.17;;
41837;SDS011;27511;52.042;5.178;2024-02-21T00:16:41;5.78;;;2.60;;
41837;SDS011;27511;52.042;5.178;2024-02-21T00:19:06;6.38;;;2.75;;
41837;SDS011;27511;52.042;5.178;2024-02-21T00:21:32;8.02;;;3.45;;
41837;SDS011;27511;52.042;5.178;2024-02-21T00:23:58;6.65;;;2.80;;
41837;SDS011;27511;52.042;5.178;2024-02-21T00:26:23;7.10;;;2.70;;
41837;SDS011;27511;52.042;5.178;2024-02-21T00:28:49;8.52;;;3.45;;
41837;SDS011;27511;52.042;5.178;2024-02-21T00:31:14;6.75;;;3.58;;
41837;SDS011;27511;52.042;5.178;2024-02-21T00:33:40;8.20;;;3.63;;
41837;SDS011;27511;52.042;5.178;2024-02-21T00:36:06;15.18;;;3.78;;
41837;SDS011;27511;52.042;5.178;2024-02-21T00:38:32;12.40;;;3.00;;
41837;SDS011;27511;52.042;5.178;2024-02-21T00:40:58;6.68;;;2.28;;
41837;SDS011;27511;52.042;5.178;2024-02-21T00:43:23;6.43;;;2.70;;
41837;SDS011;27511;52.042;5.178;2024-02-21T00:45:49;6.32;;;2.92;;
41837;SDS011;27511;52.042;5.178;2024-02-21T00:48:15;9.45;;;3.03;;
41837;SDS011;27511;52.042;5.178;2024-02-21T00:50:41;9.95;;;3.13;;
41837;SDS011;27511;52.042;5.178;2024-02-21T00:53:06;6.60;;;2.67;;
41837;SDS011;27511;52.042;5.178;2024-02-21T00:55:32;6.85;;;2.92;;
41837;SDS011;27511;52.042;5.178;2024-02-21T00:57:57;5.47;;;2.60;;
41837;SDS011;27511;52.042;5.178;2024-02-21T01:00:23;12.05;;;2.90;;
41837;SDS011;27511;52.042;5.178;2024-02-21T01:02:49;7.90;;;2.63;;
41837;SDS011;27511;52.042;5.178;2024-02-21T01:05:14;5.13;;;2.67;;
41837;SDS011;27511;52.042;5.178;2024-02-21T01:07:40;4.63;;;3.10;;
41837;SDS011;27511;52.042;5.178;2024-02-21T01:10:06;5.00;;;2.55;;
41837;SDS011;27511;52.042;5.178;2024-02-21T01:12:32;8.07;;;2.72;;
41837;SDS011;27511;52.042;5.178;2024-02-21T01:14:57;7.32;;;2.38;;
41837;SDS011;27511;52.042;5.178;2024-02-21T01:17:23;7.18;;;2.65;;
41837;SDS011;27511;52.042;5.178;2024-02-21T01:19:48;7.93;;;2.80;;
41837;SDS011;27511;52.042;5.178;2024-02-21T01:22:14;7.65;;;3.70;;
41837;SDS011;27511;52.042;5.178;2024-02-21T01:24:40;9.60;;;3.20;;
41837;SDS011;27511;52.042;5.178;2024-02-21T01:27:06;6.45;;;3.25;;
41837;SDS011;27511;52.042;5.178;2024-02-21T01:29:32;6.95;;;2.88;;
41837;SDS011;27511;52.042;5.178;2024-02-21T01:31:57;9.48;;;2.60;;
41837;SDS011;27511;52.042;5.178;2024-02-21T01:34:23;7.63;;;2.90;;
41837;SDS011;27511;52.042;5.178;2024-02-21T01:36:49;5.97;;;2.70;;
41837;SDS011;27511;52.042;5.178;2024-02-21T01:39:14;5.05;;;2.88;;
41837;SDS011;27511;52.042;5.178;2024-02-21T01:41:40;4.55;;;3.00;;
41837;SDS011;27511;52.042;5.178;2024-02-21T01:44:05;8.52;;;2.83;;
41837;SDS011;27511;52.042;5.178;2024-02-21T01:46:31;8.80;;;3.00;;
41837;SDS011;27511;52.042;5.178;2024-02-21T01:48:57;7.28;;;2.70;;
41837;SDS011;27511;52.042;5.178;2024-02-21T01:51:28;8.90;;;3.17;;
41837;SDS011;27511;52.042;5.178;2024-02-21T01:54:02;7.70;;;2.80;;
41837;SDS011;27511;52.042;5.178;2024-02-21T01:56:27;6.68;;;3.53;;
41837;SDS011;27511;52.042;5.178;2024-02-21T01:58:53;7.05;;;3.28;;
41837;SDS011;27511;52.042;5.178;2024-02-21T02:01:20;11.07;;;4.18;;
41837;SDS011;27511;52.042;5.178;2024-02-21T02:03:46;9.18;;;3.70;;
41837;SDS011;27511;52.042;5.178;2024-02-21T02:06:12;8.00;;;3.42;;
41837;SDS011;27511;52.042;5.178;2024-02-21T02:08:38;7.03;;;3.80;;
41837;SDS011;27511;52.042;5.178;2024-02-21T02:11:03;13.38;;;4.68;;
41837;SDS011;27511;52.042;5.178;2024-02-21T02:13:29;6.85;;;3.85;;
41837;SDS011;27511;52.042;5.178;2024-02-21T02:15:55;8.90;;;4.20;;
41837;SDS011;27511;52.042;5.178;2024-02-21T02:18:20;6.07;;;3.47;;
41837;SDS011;27511;52.042;5.178;2024-02-21T02:20:46;7.38;;;2.92;;
41837;SDS011;27511;52.042;5.178;2024-02-21T02:25:50;11.60;;;4.65;;
41837;SDS011;27511;52.042;5.178;2024-02-21T02:28:18;7.50;;;3.60;;
41837;SDS011;27511;52.042;5.178;2024-02-21T02:30:45;7.82;;;3.65;;
41837;SDS011;27511;52.042;5.178;2024-02-21T02:33:11;7.70;;;3.55;;
41837;SDS011;27511;52.042;5.178;2024-02-21T02:35:36;8.25;;;3.50;;
41837;SDS011;27511;52.042;5.178;2024-02-21T02:38:02;6.70;;;3.20;;
41837;SDS011;27511;52.042;5.178;2024-02-21T02:40:28;6.70;;;2.33;;
41837;SDS011;27511;52.042;5.178;2024-02-21T02:42:54;7.78;;;3.10;;
41837;SDS011;27511;52.042;5.178;2024-02-21T02:45:21;5.93;;;3.63;;
41837;SDS011;27511;52.042;5.178;2024-02-21T02:47:51;7.45;;;2.65;;
41837;SDS011;27511;52.042;5.178;2024-02-21T02:50:20;9.20;;;2.88;;
41837;SDS011;27511;52.042;5.178;2024-02-21T02:52:45;8.27;;;3.38;;
41837;SDS011;27511;52.042;5.178;2024-02-21T02:55:11;6.32;;;3.10;;
41837;SDS011;27511;52.042;5.178;2024-02-21T02:57:37;5.78;;;3.00;;
41837;SDS011;27511;52.042;5.178;2024-02-21T03:00:03;6.97;;;3.20;;
41837;SDS011;27511;52.042;5.178;2024-02-21T03:02:29;5.53;;;3.28;;
41837;SDS011;27511;52.042;5.178;2024-02-21T03:04:56;6.68;;;3.30;;
41837;SDS011;27511;52.042;5.178;2024-02-21T03:07:22;6.50;;;3.35;;
41837;SDS011;27511;52.042;5.178;2024-02-21T03:09:49;6.50;;;3.13;;
41837;SDS011;27511;52.042;5.178;2024-02-21T03:12:15;10.30;;;3.90;;
41837;SDS011;27511;52.042;5.178;2024-02-21T03:14:49;6.25;;;3.53;;
41837;SDS011;27511;52.042;5.178;2024-02-21T03:17:17;6.60;;;3.40;;
41837;SDS011;27511;52.042;5.178;2024-02-21T03:19:43;10.20;;;3.80;;
41837;SDS011;27511;52.042;5.178;2024-02-21T03:22:08;13.10;;;3.60;;
41837;SDS011;27511;52.042;5.178;2024-02-21T03:24:34;8.25;;;3.38;;
41837;SDS011;27511;52.042;5.178;2024-02-21T03:26:59;7.20;;;3.33;;
41837;SDS011;27511;52.042;5.178;2024-02-21T03:29:25;8.35;;;3.47;;
41837;SDS011;27511;52.042;5.178;2024-02-21T03:31:50;8.48;;;3.75;;
41837;SDS011;27511;52.042;5.178;2024-02-21T03:34:16;8.30;;;3.47;;
41837;SDS011;27511;52.042;5.178;2024-02-21T03:36:42;9.52;;;4.07;;
41837;SDS011;27511;52.042;5.178;2024-02-21T03:39:07;6.65;;;3.78;;
41837;SDS011;27511;52.042;5.178;2024-02-21T03:41:34;6.70;;;3.33;;
41837;SDS011;27511;52.042;5.178;2024-02-21T03:44:00;4.82;;;3.13;;
41837;SDS011;27511;52.042;5.178;2024-02-21T03:46:27;8.57;;;3.88;;
41837;SDS011;27511;52.042;5.178;2024-02-21T03:48:52;5.47;;;3.08;;
41837;SDS011;27511;52.042;5.178;2024-02-21T03:51:18;6.00;;;2.97;;
41837;SDS011;27511;52.042;5.178;2024-02-21T03:53:44;7.07;;;3.60;;
41837;SDS011;27511;52.042;5.178;2024-02-21T03:56:09;6.72;;;3.58;;
41837;SDS011;27511;52.042;5.178;2024-02-21T03:58:35;7.60;;;3.78;;
41837;SDS011;27511;52.042;5.178;2024-02-21T04:01:01;8.00;;;3.70;;
41837;SDS011;27511;52.042;5.178;2024-02-21T04:03:27;8.05;;;4.55;;
41837;SDS011;27511;52.042;5.178;2024-02-21T04:05:52;8.25;;;3.47;;
41837;SDS011;27511;52.042;5.178;2024-02-21T04:08:18;6.82;;;3.80;;
41837;SDS011;27511;52.042;5.178;2024-02-21T04:10:44;7.35;;;4.15;;
41837;SDS011;27511;52.042;5.178;2024-02-21T04:13:10;6.68;;;3.72;;
41837;SDS011;27511;52.042;5.178;2024-02-21T04:15:35;9.88;;;4.13;;
41837;SDS011;27511;52.042;5.178;2024-02-21T04:18:01;6.00;;;3.28;;
41837;SDS011;27511;52.042;5.178;2024-02-21T04:20:30;10.80;;;4.20;;
41837;SDS011;27511;52.042;5.178;2024-02-21T04:23:14;7.63;;;4.00;;
41837;SDS011;27511;52.042;5.178;2024-02-21T04:25:39;9.07;;;4.10;;
41837;SDS011;27511;52.042;5.178;2024-02-21T04:28:05;7.50;;;3.97;;
41837;SDS011;27511;52.042;5.178;2024-02-21T04:30:30;7.05;;;3.63;;
41837;SDS011;27511;52.042;5.178;2024-02-21T04:32:56;5.15;;;3.42;;
41837;SDS011;27511;52.042;5.178;2024-02-21T04:35:21;7.78;;;4.00;;
41837;SDS011;27511;52.042;5.178;2024-02-21T04:37:49;8.20;;;4.15;;
41837;SDS011;27511;52.042;5.178;2024-02-21T04:40:14;8.18;;;4.35;;
41837;SDS011;27511;52.042;5.178;2024-02-21T04:42:41;7.65;;;4.88;;
41837;SDS011;27511;52.042;5.178;2024-02-21T04:45:07;10.18;;;4.43;;
41837;SDS011;27511;52.042;5.178;2024-02-21T04:47:33;8.30;;;4.53;;
41837;SDS011;27511;52.042;5.178;2024-02-21T04:49:59;11.13;;;5.45;;
41837;SDS011;27511;52.042;5.178;2024-02-21T04:52:25;8.85;;;4.90;;
41837;SDS011;27511;52.042;5.178;2024-02-21T04:54:50;7.70;;;4.55;;
41837;SDS011;27511;52.042;5.178;2024-02-21T04:57:16;9.13;;;5.50;;
41837;SDS011;27511;52.042;5.178;2024-02-21T04:59:46;7.68;;;4.75;;
41837;SDS011;27511;52.042;5.178;2024-02-21T05:02:12;10.88;;;4.68;;
41837;SDS011;27511;52.042;5.178;2024-02-21T05:04:39;8.65;;;4.97;;
41837;SDS011;27511;52.042;5.178;2024-02-21T05:07:06;6.70;;;5.13;;
41837;SDS011;27511;52.042;5.178;2024-02-21T05:09:32;11.10;;;5.15;;
41837;SDS011;27511;52.042;5.178;2024-02-21T05:11:58;8.35;;;4.85;;
41837;SDS011;27511;52.042;5.178;2024-02-21T05:14:26;8.77;;;4.80;;
41837;SDS011;27511;52.042;5.178;2024-02-21T05:16:52;8.77;;;4.45;;
41837;SDS011;27511;52.042;5.178;2024-02-21T05:19:18;8.10;;;4.55;;
41837;SDS011;27511;52.042;5.178;2024-02-21T05:21:44;7.93;;;4.78;;
41837;SDS011;27511;52.042;5.178;2024-02-21T05:24:20;6.55;;;4.55;;
41837;SDS011;27511;52.042;5.178;2024-02-21T05:26:45;9.35;;;4.22;;
41837;SDS011;27511;52.042;5.178;2024-02-21T05:29:11;11.85;;;5.53;;
41837;SDS011;27511;52.042;5.178;2024-02-21T05:31:54;7.53;;;4.93;;
41837;SDS011;27511;52.042;5.178;2024-02-21T05:34:22;7.53;;;4.35;;
41837;SDS011;27511;52.042;5.178;2024-02-21T05:36:47;10.13;;;4.93;;
41837;SDS011;27511;52.042;5.178;2024-02-21T05:39:17;10.88;;;4.78;;
41837;SDS011;27511;52.042;5.178;2024-02-21T05:41:43;8.68;;;5.25;;
41837;SDS011;27511;52.042;5.178;2024-02-21T05:44:08;11.00;;;5.25;;
41837;SDS011;27511;52.042;5.178;2024-02-21T05:46:37;9.15;;;4.43;;
41837;SDS011;27511;52.042;5.178;2024-02-21T05:49:03;9.00;;;5.03;;
41837;SDS011;27511;52.042;5.178;2024-02-21T05:51:32;11.45;;;5.45;;
41837;SDS011;27511;52.042;5.178;2024-02-21T05:53:58;12.30;;;5.50;;
41837;SDS011;27511;52.042;5.178;2024-02-21T05:56:23;12.10;;;5.93;;
41837;SDS011;27511;52.042;5.178;2024-02-21T05:58:49;11.10;;;5.78;;
41837;SDS011;27511;52.042;5.178;2024-02-21T06:01:15;10.73;;;5.60;;
41837;SDS011;27511;52.042;5.178;2024-02-21T06:03:40;10.07;;;6.07;;
41837;SDS011;27511;52.042;5.178;2024-02-21T06:06:06;9.60;;;6.55;;
41837;SDS011;27511;52.042;5.178;2024-02-21T06:08:32;15.60;;;6.95;;
41837;SDS011;27511;52.042;5.178;2024-02-21T06:10:57;11.90;;;6.53;;
41837;SDS011;27511;52.042;5.178;2024-02-21T06:13:23;11.40;;;6.68;;
41837;SDS011;27511;52.042;5.178;2024-02-21T06:15:49;12.73;;;6.38;;
41837;SDS011;27511;52.042;5.178;2024-02-21T06:18:18;12.18;;;6.55;;
41837;SDS011;27511;52.042;5.178;2024-02-21T06:20:44;12.27;;;6.57;;
41837;SDS011;27511;52.042;5.178;2024-02-21T06:23:11;9.13;;;6.35;;
41837;SDS011;27511;52.042;5.178;2024-02-21T06:25:37;12.40;;;6.38;;
41837;SDS011;27511;52.042;5.178;2024-02-21T06:28:03;12.73;;;6.32;;
41837;SDS011;27511;52.042;5.178;2024-02-21T06:30:30;11.15;;;6.03;;
41837;SDS011;27511;52.042;5.178;2024-02-21T06:32:55;14.60;;;7.20;;
41837;SDS011;27511;52.042;5.178;2024-02-21T06:35:21;12.55;;;7.20;;
41837;SDS011;27511;52.042;5.178;2024-02-21T06:37:49;12.52;;;7.18;;
41837;SDS011;27511;52.042;5.178;2024-02-21T06:40:16;14.27;;;7.38;;
41837;SDS011;27511;52.042;5.178;2024-02-21T06:42:42;12.48;;;7.05;;
41837;SDS011;27511;52.042;5.178;2024-02-21T06:45:08;13.90;;;7.88;;
41837;SDS011;27511;52.042;5.178;2024-02-21T06:47:34;15.43;;;7.70;;
41837;SDS011;27511;52.042;5.178;2024-02-21T06:50:00;18.08;;;7.85;;
41837;SDS011;27511;52.042;5.178;2024-02-21T06:52:25;13.23;;;7.30;;
41837;SDS011;27511;52.042;5.178;2024-02-21T06:54:51;13.60;;;7.43;;
41837;SDS011;27511;52.042;5.178;2024-02-21T06:57:17;21.08;;;8.48;;
41837;SDS011;27511;52.042;5.178;2024-02-21T06:59:43;16.10;;;7.57;;
41837;SDS011;27511;52.042;5.178;2024-02-21T07:02:08;17.75;;;7.85;;
41837;SDS011;27511;52.042;5.178;2024-02-21T07:04:34;12.43;;;6.97;;
41837;SDS011;27511;52.042;5.178;2024-02-21T07:07:00;15.98;;;7.53;;
41837;SDS011;27511;52.042;5.178;2024-02-21T07:09:25;17.73;;;9.00;;
41837;SDS011;27511;52.042;5.178;2024-02-21T07:11:53;14.52;;;7.53;;
41837;SDS011;27511;52.042;5.178;2024-02-21T07:14:19;17.30;;;7.68;;
41837;SDS011;27511;52.042;5.178;2024-02-21T07:16:45;16.30;;;7.68;;
41837;SDS011;27511;52.042;5.178;2024-02-21T07:19:10;16.92;;;7.63;;
41837;SDS011;27511;52.042;5.178;2024-02-21T07:21:36;15.65;;;7.63;;
41837;SDS011;27511;52.042;5.178;2024-02-21T07:24:06;20.60;;;8.75;;
41837;SDS011;27511;52.042;5.178;2024-02-21T07:26:35;13.18;;;6.93;;
41837;SDS011;27511;52.042;5.178;2024-02-21T07:29:00;15.32;;;9.07;;
41837;SDS011;27511;52.042;5.178;2024-02-21T07:31:26;12.70;;;7.15;;
41837;SDS011;27511;52.042;5.178;2024-02-21T07:33:51;16.48;;;8.35;;
41837;SDS011;27511;52.042;5.178;2024-02-21T07:36:25;16.05;;;7.72;;
41837;SDS011;27511;52.042;5.178;2024-02-21T07:38:55;15.68;;;7.70;;
41837;SDS011;27511;52.042;5.178;2024-02-21T07:41:21;16.88;;;6.80;;
41837;SDS011;27511;52.042;5.178;2024-02-21T07:43:46;16.10;;;7.78;;
41837;SDS011;27511;52.042;5.178;2024-02-21T07:46:13;13.75;;;6.95;;
41837;SDS011;27511;52.042;5.178;2024-02-21T07:48:42;13.10;;;7.10;;
41837;SDS011;27511;52.042;5.178;2024-02-21T07:51:10;15.10;;;7.68;;
41837;SDS011;27511;52.042;5.178;2024-02-21T07:53:43;11.70;;;6.28;;
41837;SDS011;27511;52.042;5.178;2024-02-21T07:56:12;13.27;;;7.47;;
41837;SDS011;27511;52.042;5.178;2024-02-21T07:58:39;13.10;;;7.03;;
41837;SDS011;27511;52.042;5.178;2024-02-21T08:01:05;14.13;;;7.47;;
41837;SDS011;27511;52.042;5.178;2024-02-21T08:03:31;14.32;;;6.40;;
41837;SDS011;27511;52.042;5.178;2024-02-21T08:05:57;13.98;;;6.85;;
41837;SDS011;27511;52.042;5.178;2024-02-21T08:08:22;14.32;;;8.13;;
41837;SDS011;27511;52.042;5.178;2024-02-21T08:10:49;15.63;;;7.68;;
41837;SDS011;27511;52.042;5.178;2024-02-21T08:13:15;12.23;;;6.82;;
41837;SDS011;27511;52.042;5.178;2024-02-21T08:15:41;13.25;;;6.93;;
41837;SDS011;27511;52.042;5.178;2024-02-21T08:18:07;12.88;;;7.30;;
41837;SDS011;27511;52.042;5.178;2024-02-21T08:20:33;16.27;;;8.13;;
41837;SDS011;27511;52.042;5.178;2024-02-21T08:22:59;17.23;;;7.25;;
41837;SDS011;27511;52.042;5.178;2024-02-21T08:25:25;17.10;;;9.20;;
41837;SDS011;27511;52.042;5.178;2024-02-21T08:27:55;13.85;;;8.10;;
41837;SDS011;27511;52.042;5.178;2024-02-21T08:30:22;18.52;;;7.50;;
41837;SDS011;27511;52.042;5.178;2024-02-21T08:32:48;16.70;;;7.90;;
41837;SDS011;27511;52.042;5.178;2024-02-21T08:35:13;16.52;;;8.27;;
41837;SDS011;27511;52.042;5.178;2024-02-21T08:37:39;15.40;;;8.95;;
41837;SDS011;27511;52.042;5.178;2024-02-21T08:40:04;13.85;;;8.40;;
41837;SDS011;27511;52.042;5.178;2024-02-21T08:42:36;15.70;;;8.00;;
41837;SDS011;27511;52.042;5.178;2024-02-21T08:45:04;18.88;;;9.32;;
41837;SDS011;27511;52.042;5.178;2024-02-21T08:47:30;21.88;;;9.07;;
41837;SDS011;27511;52.042;5.178;2024-02-21T08:49:56;16.90;;;8.40;;
41837;SDS011;27511;52.042;5.178;2024-02-21T08:52:21;14.32;;;8.30;;
41837;SDS011;27511;52.042;5.178;2024-02-21T08:54:47;14.20;;;7.82;;
41837;SDS011;27511;52.042;5.178;2024-02-21T08:57:13;16.88;;;8.82;;
41837;SDS011;27511;52.042;5.178;2024-02-21T08:59:39;13.48;;;6.85;;
41837;SDS011;27511;52.042;5.178;2024-02-21T09:02:04;13.27;;;6.88;;
41837;SDS011;27511;52.042;5.178;2024-02-21T09:04:32;13.73;;;7.05;;
41837;SDS011;27511;52.042;5.178;2024-02-21T09:06:58;16.48;;;7.28;;
41837;SDS011;27511;52.042;5.178;2024-02-21T09:09:24;14.52;;;6.75;;
41837;SDS011;27511;52.042;5.178;2024-02-21T09:11:50;13.88;;;6.88;;
41837;SDS011;27511;52.042;5.178;2024-02-21T09:14:16;12.07;;;6.50;;
41837;SDS011;27511;52.042;5.178;2024-02-21T09:16:41;16.45;;;6.53;;
41837;SDS011;27511;52.042;5.178;2024-02-21T09:19:07;11.48;;;6.00;;
41837;SDS011;27511;52.042;5.178;2024-02-21T09:21:35;10.32;;;5.90;;
41837;SDS011;27511;52.042;5.178;2024-02-21T09:24:04;13.95;;;6.70;;
41837;SDS011;27511;52.042;5.178;2024-02-21T09:26:31;12.05;;;6.78;;
41837;SDS011;27511;52.042;5.178;2024-02-21T09:28:56;14.95;;;6.10;;
41837;SDS011;27511;52.042;5.178;2024-02-21T09:31:22;8.55;;;6.13;;
41837;SDS011;27511;52.042;5.178;2024-02-21T09:33:47;10.43;;;5.43;;
41837;SDS011;27511;52.042;5.178;2024-02-21T09:36:13;12.50;;;6.30;;
41837;SDS011;27511;52.042;5.178;2024-02-21T09:38:40;13.00;;;5.95;;
41837;SDS011;27511;52.042;5.178;2024-02-21T09:41:14;10.60;;;5.60;;
41837;SDS011;27511;52.042;5.178;2024-02-21T09:43:44;10.43;;;5.38;;
41837;SDS011;27511;52.042;5.178;2024-02-21T09:46:18;12.48;;;5.82;;
41837;SDS011;27511;52.042;5.178;2024-02-21T09:51:13;11.20;;;6.07;;
41837;SDS011;27511;52.042;5.178;2024-02-21T09:53:40;9.50;;;5.43;;
41837;SDS011;27511;52.042;5.178;2024-02-21T09:56:10;10.68;;;5.50;;
41837;SDS011;27511;52.042;5.178;2024-02-21T09:58:36;9.13;;;5.65;;
41837;SDS011;27511;52.042;5.178;2024-02-21T10:01:02;11.88;;;5.38;;
41837;SDS011;27511;52.042;5.178;2024-02-21T10:03:31;8.13;;;4.95;;
41837;SDS011;27511;52.042;5.178;2024-02-21T10:05:58;11.77;;;6.55;;
41837;SDS011;27511;52.042;5.178;2024-02-21T10:08:26;7.70;;;4.82;;
41837;SDS011;27511;52.042;5.178;2024-02-21T10:10:54;10.50;;;5.45;;
41837;SDS011;27511;52.042;5.178;2024-02-21T10:13:27;11.25;;;5.25;;
41837;SDS011;27511;52.042;5.178;2024-02-21T10:16:06;7.43;;;4.70;;
41837;SDS011;27511;52.042;5.178;2024-02-21T10:18:36;8.73;;;4.55;;
41837;SDS011;27511;52.042;5.178;2024-02-21T10:21:02;8.00;;;4.25;;
41837;SDS011;27511;52.042;5.178;2024-02-21T10:23:42;8.68;;;5.15;;
41837;SDS011;27511;52.042;5.178;2024-02-21T10:26:08;8.57;;;4.65;;
41837;SDS011;27511;52.042;5.178;2024-02-21T10:28:34;10.25;;;4.78;;
41837;SDS011;27511;52.042;5.178;2024-02-21T10:31:00;9.25;;;5.32;;
41837;SDS011;27511;52.042;5.178;2024-02-21T10:33:25;7.20;;;4.65;;
41837;SDS011;27511;52.042;5.178;2024-02-21T10:35:53;7.95;;;4.07;;
41837;SDS011;27511;52.042;5.178;2024-02-21T10:38:19;7.90;;;4.50;;
41837;SDS011;27511;52.042;5.178;2024-02-21T10:40:44;7.78;;;4.13;;
41837;SDS011;27511;52.042;5.178;2024-02-21T10:43:14;6.40;;;3.95;;
41837;SDS011;27511;52.042;5.178;2024-02-21T10:45:41;7.72;;;4.72;;
41837;SDS011;27511;52.042;5.178;2024-02-21T10:50:56;9.55;;;4.22;;
41837;SDS011;27511;52.042;5.178;2024-02-21T10:56:11;10.32;;;4.72;;
41837;SDS011;27511;52.042;5.178;2024-02-21T10:58:39;7.13;;;4.30;;
41837;SDS011;27511;52.042;5.178;2024-02-21T11:01:05;8.05;;;4.82;;
41837;SDS011;27511;52.042;5.178;2024-02-21T11:03:33;9.13;;;5.07;;
41837;SDS011;27511;52.042;5.178;2024-02-21T11:05:59;7.45;;;4.90;;
41837;SDS011;27511;52.042;5.178;2024-02-21T11:08:26;11.40;;;5.50;;
41837;SDS011;27511;52.042;5.178;2024-02-21T11:10:56;8.30;;;5.90;;
41837;SDS011;27511;52.042;5.178;2024-02-21T11:13:30;9.98;;;6.07;;
41837;SDS011;27511;52.042;5.178;2024-02-21T11:16:08;10.77;;;6.25;;
41837;SDS011;27511;52.042;5.178;2024-02-21T11:18:38;11.07;;;5.85;;
41837;SDS011;27511;52.042;5.178;2024-02-21T11:21:04;8.38;;;5.80;;
41837;SDS011;27511;52.042;5.178;2024-02-21T11:23:30;11.68;;;6.32;;
41837;SDS011;27511;52.042;5.178;2024-02-21T11:28:32;9.75;;;6.78;;
41837;SDS011;27511;52.042;5.178;2024-02-21T11:31:06;10.27;;;6.45;;
41837;SDS011;27511;52.042;5.178;2024-02-21T11:33:41;11.90;;;6.63;;
41837;SDS011;27511;52.042;5.178;2024-02-21T11:36:08;9.30;;;5.82;;
41837;SDS011;27511;52.042;5.178;2024-02-21T11:38:34;8.68;;;5.35;;
41837;SDS011;27511;52.042;5.178;2024-02-21T11:41:00;12.50;;;6.25;;
41837;SDS011;27511;52.042;5.178;2024-02-21T11:43:26;9.15;;;5.68;;
41837;SDS011;27511;52.042;5.178;2024-02-21T11:45:59;10.68;;;5.22;;
41837;SDS011;27511;52.042;5.178;2024-02-21T11:48:28;9.25;;;5.38;;
41837;SDS011;27511;52.042;5.178;2024-02-21T11:50:55;6.35;;;5.15;;
41837;SDS011;27511;52.042;5.178;2024-02-21T11:53:21;10.63;;;6.10;;
41837;SDS011;27511;52.042;5.178;2024-02-21T11:55:47;7.93;;;5.40;;
41837;SDS011;27511;52.042;5.178;2024-02-21T11:58:13;8.75;;;5.57;;
41837;SDS011;27511;52.042;5.178;2024-02-21T12:00:38;9.82;;;5.72;;
41837;SDS011;27511;52.042;5.178;2024-02-21T12:03:05;11.45;;;5.45;;
41837;SDS011;27511;52.042;5.178;2024-02-21T12:05:31;8.57;;;5.28;;
41837;SDS011;27511;52.042;5.178;2024-02-21T12:07:57;7.30;;;5.20;;
41837;SDS011;27511;52.042;5.178;2024-02-21T12:10:26;9.15;;;5.30;;
41837;SDS011;27511;52.042;5.178;2024-02-21T12:12:52;6.93;;;4.50;;
41837;SDS011;27511;52.042;5.178;2024-02-21T12:15:20;8.32;;;5.30;;
41837;SDS011;27511;52.042;5.178;2024-02-21T12:17:45;8.00;;;5.35;;
41837;SDS011;27511;52.042;5.178;2024-02-21T12:20:11;8.90;;;5.18;;
41837;SDS011;27511;52.042;5.178;2024-02-21T12:22:37;9.88;;;5.60;;
41837;SDS011;27511;52.042;5.178;2024-02-21T12:25:19;7.18;;;4.72;;
41837;SDS011;27511;52.042;5.178;2024-02-21T12:27:49;8.02;;;4.70;;
41837;SDS011;27511;52.042;5.178;2024-02-21T12:30:15;9.38;;;4.88;;
41837;SDS011;27511;52.042;5.178;2024-02-21T12:32:41;5.93;;;4.07;;
41837;SDS011;27511;52.042;5.178;2024-02-21T12:35:06;8.23;;;5.05;;
41837;SDS011;27511;52.042;5.178;2024-02-21T12:37:32;8.70;;;4.80;;
41837;SDS011;27511;52.042;5.178;2024-02-21T12:39:58;7.72;;;4.68;;
41837;SDS011;27511;52.042;5.178;2024-02-21T12:42:24;6.93;;;4.63;;
41837;SDS011;27511;52.042;5.178;2024-02-21T12:44:51;5.90;;;4.10;;
41837;SDS011;27511;52.042;5.178;2024-02-21T12:47:19;9.02;;;4.22;;
41837;SDS011;27511;52.042;5.178;2024-02-21T12:49:48;9.02;;;4.55;;
41837;SDS011;27511;52.042;5.178;2024-02-21T12:52:14;8.00;;;4.35;;
41837;SDS011;27511;52.042;5.178;2024-02-21T12:54:40;8.52;;;4.55;;
41837;SDS011;27511;52.042;5.178;2024-02-21T12:57:05;6.85;;;4.53;;
41837;SDS011;27511;52.042;5.178;2024-02-21T12:59:31;6.75;;;4.55;;
41837;SDS011;27511;52.042;5.178;2024-02-21T13:01:56;9.52;;;3.97;;
41837;SDS011;27511;52.042;5.178;2024-02-21T13:04:22;6.78;;;3.78;;
41837;SDS011;27511;52.042;5.178;2024-02-21T13:06:48;7.65;;;4.55;;
41837;SDS011;27511;52.042;5.178;2024-02-21T13:09:14;7.07;;;4.05;;
41837;SDS011;27511;52.042;5.178;2024-02-21T13:11:40;5.53;;;4.13;;
41837;SDS011;27511;52.042;5.178;2024-02-21T13:14:07;6.28;;;4.07;;
41837;SDS011;27511;52.042;5.178;2024-02-21T13:16:32;6.28;;;4.38;;
41837;SDS011;27511;52.042;5.178;2024-02-21T13:19:04;8.45;;;3.67;;
41837;SDS011;27511;52.042;5.178;2024-02-21T13:21:30;5.18;;;4.10;;
41837;SDS011;27511;52.042;5.178;2024-02-21T13:23:56;10.15;;;4.47;;
41837;SDS011;27511;52.042;5.178;2024-02-21T13:26:22;6.82;;;3.72;;
41837;SDS011;27511;52.042;5.178;2024-02-21T13:28:48;6.65;;;3.75;;
41837;SDS011;27511;52.042;5.178;2024-02-21T13:31:14;5.78;;;3.45;;
41837;SDS011;27511;52.042;5.178;2024-02-21T13:33:41;7.20;;;3.70;;
41837;SDS011;27511;52.042;5.178;2024-02-21T13:36:09;4.93;;;2.95;;
41837;SDS011;27511;52.042;5.178;2024-02-21T13:38:35;7.35;;;3.95;;
41837;SDS011;27511;52.042;5.178;2024-02-21T13:41:00;8.40;;;3.70;;
41837;SDS011;27511;52.042;5.178;2024-02-21T13:43:26;4.35;;;2.83;;
41837;SDS011;27511;52.042;5.178;2024-02-21T13:45:58;9.23;;;3.38;;
41837;SDS011;27511;52.042;5.178;2024-02-21T13:48:30;5.32;;;3.25;;
41837;SDS011;27511;52.042;5.178;2024-02-21T13:50:56;7.95;;;3.75;;
41837;SDS011;27511;52.042;5.178;2024-02-21T13:53:22;10.45;;;3.55;;
41837;SDS011;27511;52.042;5.178;2024-02-21T13:55:48;7.22;;;3.72;;
41837;SDS011;27511;52.042;5.178;2024-02-21T13:58:15;7.90;;;4.18;;
41837;SDS011;27511;52.042;5.178;2024-02-21T14:00:40;5.32;;;2.80;;
41837;SDS011;27511;52.042;5.178;2024-02-21T14:03:06;4.45;;;3.50;;
41837;SDS011;27511;52.042;5.178;2024-02-21T14:05:32;4.60;;;3.20;;
41837;SDS011;27511;52.042;5.178;2024-02-21T14:07:57;8.40;;;3.60;;
41837;SDS011;27511;52.042;5.178;2024-02-21T14:10:23;8.85;;;3.72;;
41837;SDS011;27511;52.042;5.178;2024-02-21T14:12:48;8.20;;;3.28;;
41837;SDS011;27511;52.042;5.178;2024-02-21T14:15:14;4.93;;;3.63;;
41837;SDS011;27511;52.042;5.178;2024-02-21T14:17:41;9.40;;;4.05;;
41837;SDS011;27511;52.042;5.178;2024-02-21T14:20:07;5.57;;;3.42;;
41837;SDS011;27511;52.042;5.178;2024-02-21T14:22:33;6.30;;;3.22;;
41837;SDS011;27511;52.042;5.178;2024-02-21T14:24:59;4.88;;;3.45;;
41837;SDS011;27511;52.042;5.178;2024-02-21T14:27:25;4.47;;;3.10;;
41837;SDS011;27511;52.042;5.178;2024-02-21T14:29:51;7.57;;;3.70;;
41837;SDS011;27511;52.042;5.178;2024-02-21T14:32:18;7.43;;;3.17;;
41837;SDS011;27511;52.042;5.178;2024-02-21T14:34:44;5.43;;;3.03;;
41837;SDS011;27511;52.042;5.178;2024-02-21T14:37:10;6.18;;;2.63;;
41837;SDS011;27511;52.042;5.178;2024-02-21T14:39:36;4.75;;;3.13;;
41837;SDS011;27511;52.042;5.178;2024-02-21T14:42:01;4.25;;;2.65;;
41837;SDS011;27511;52.042;5.178;2024-02-21T14:44:27;4.20;;;3.35;;
41837;SDS011;27511;52.042;5.178;2024-02-21T14:46:53;3.85;;;2.67;;
41837;SDS011;27511;52.042;5.178;2024-02-21T14:49:19;5.03;;;2.80;;
41837;SDS011;27511;52.042;5.178;2024-02-21T14:51:44;4.88;;;3.13;;
41837;SDS011;27511;52.042;5.178;2024-02-21T14:54:10;5.22;;;2.90;;